createdAt,value
2024-03-06T00:00:23.836Z,39.77
2024-03-06T00:02:50.507Z,41.09
2024-03-06T00:05:17.361Z,35.44
2024-03-06T00:07:44.048Z,40.11
2024-03-06T00:10:10.833Z,31.58
2024-03-06T00:12:37.541Z,26.72
2024-03-06T00:15:04.504Z,25.72
2024-03-06T00:17:31.208Z,25.02
2024-03-06T00:19:57.878Z,23.64
2024-03-06T00:22:24.635Z,23.12
2024-03-06T00:24:51.508Z,22.34
2024-03-06T00:27:18.405Z,23.21
2024-03-06T00:29:45.076Z,25.82
2024-03-06T00:32:11.791Z,27.26
2024-03-06T00:34:38.643Z,27.48
2024-03-06T00:37:05.567Z,24.45
2024-03-06T00:39:32.122Z,24.56
2024-03-06T00:41:58.920Z,24.44
2024-03-06T00:44:25.532Z,26.32
2024-03-06T00:46:52.187Z,27.24
2024-03-06T00:49:18.806Z,26.33
2024-03-06T00:51:49.218Z,28.62
2024-03-06T00:54:17.552Z,28.35
2024-03-06T00:56:44.772Z,28.17
2024-03-06T00:59:11.893Z,28.66
2024-03-06T01:01:38.836Z,27.06
2024-03-06T01:04:05.542Z,26.15
2024-03-06T01:06:32.257Z,27.20
2024-03-06T01:08:59.512Z,27.36
2024-03-06T01:11:27.478Z,26.29
2024-03-06T01:13:54.977Z,25.95
2024-03-06T01:16:21.785Z,26.04
2024-03-06T01:18:48.536Z,27.14
2024-03-06T01:21:15.314Z,26.98
2024-03-06T01:23:41.951Z,25.49
2024-03-06T01:26:08.730Z,26.42
2024-03-06T01:28:35.459Z,26.47
2024-03-06T01:31:02.189Z,26.77
2024-03-06T01:33:28.825Z,25.37
2024-03-06T01:35:55.480Z,25.46
2024-03-06T01:38:22.780Z,26.21
2024-03-06T01:40:49.504Z,27.17
2024-03-06T01:43:26.662Z,26.50
2024-03-06T01:45:54.500Z,27.12
2024-03-06T01:48:27.141Z,26.20
2024-03-06T01:50:57.100Z,26.57
2024-03-06T01:53:25.818Z,25.25
2024-03-06T01:55:53.040Z,26.51
2024-03-06T01:58:22.291Z,26.58
2024-03-06T02:00:50.555Z,28.64
2024-03-06T02:03:18.472Z,29.39
2024-03-06T02:05:45.258Z,29.92
2024-03-06T02:08:12.010Z,29.47
2024-03-06T02:10:38.733Z,29.08
2024-03-06T02:13:05.451Z,27.18
2024-03-06T02:15:32.091Z,27.49
2024-03-06T02:17:58.925Z,28.19
2024-03-06T02:20:26.158Z,29.69
2024-03-06T02:22:53.259Z,28.91
2024-03-06T02:25:20.703Z,28.04
2024-03-06T02:27:49.419Z,27.76
2024-03-06T02:30:20.064Z,27.10
2024-03-06T02:32:46.768Z,27.22
2024-03-06T02:35:14.804Z,28.13
2024-03-06T02:37:45.452Z,26.46
2024-03-06T02:40:12.713Z,27.79
2024-03-06T02:42:42.912Z,26.72
2024-03-06T02:45:09.880Z,26.06
2024-03-06T02:47:36.852Z,25.67
2024-03-06T02:50:03.736Z,26.64
2024-03-06T02:52:30.450Z,26.95
2024-03-06T02:54:57.320Z,27.27
2024-03-06T02:57:24.147Z,28.86
2024-03-06T02:59:51.037Z,29.13
2024-03-06T03:02:17.761Z,29.26
2024-03-06T03:04:44.981Z,30.68
2024-03-06T03:07:11.808Z,28.14
2024-03-06T03:09:39.598Z,28.46
2024-03-06T03:12:06.753Z,28.50
2024-03-06T03:14:33.907Z,30.32
2024-03-06T03:17:02.138Z,29.40
2024-03-06T03:19:29.026Z,29.04
2024-03-06T03:21:55.651Z,30.90
2024-03-06T03:24:22.878Z,29.84
2024-03-06T03:26:49.731Z,28.39
2024-03-06T03:29:16.530Z,28.35
2024-03-06T03:31:43.686Z,27.46
2024-03-06T03:34:11.625Z,28.08
2024-03-06T03:36:44.613Z,30.40
2024-03-06T03:39:18.669Z,29.98
2024-03-06T03:41:49.231Z,27.75
2024-03-06T03:44:16.825Z,29.29
2024-03-06T03:46:44.118Z,29.22
2024-03-06T03:49:10.902Z,28.78
2024-03-06T03:51:38.951Z,29.45
2024-03-06T03:54:06.310Z,28.61
2024-03-06T03:56:33.627Z,29.30
2024-03-06T03:59:00.537Z,30.87
2024-03-06T04:01:27.321Z,28.68
2024-03-06T04:03:54.030Z,28.15
2024-03-06T04:06:20.616Z,29.40
2024-03-06T04:08:47.273Z,29.50
2024-03-06T04:11:13.949Z,28.45
2024-03-06T04:13:41.077Z,28.01
2024-03-06T04:16:07.980Z,28.24
2024-03-06T04:18:34.966Z,28.81
2024-03-06T04:21:08.272Z,31.47
2024-03-06T04:23:34.953Z,30.23
2024-03-06T04:26:01.891Z,27.37
2024-03-06T04:28:29.254Z,29.19
2024-03-06T04:30:56.038Z,30.00
2024-03-06T04:33:22.949Z,28.28
2024-03-06T04:35:49.929Z,31.95
2024-03-06T04:38:16.767Z,30.54
2024-03-06T04:40:43.758Z,29.25
2024-03-06T04:43:10.609Z,29.33
2024-03-06T04:45:37.719Z,30.71
2024-03-06T04:48:04.511Z,30.13
2024-03-06T04:50:31.202Z,27.81
2024-03-06T04:52:57.864Z,29.93
2024-03-06T04:55:26.243Z,30.32
2024-03-06T04:57:54.613Z,29.38
2024-03-06T05:00:21.373Z,29.70
2024-03-06T06:00:23.206Z,22.98
2024-03-06T06:02:49.991Z,22.68
2024-03-06T06:05:23.245Z,22.89
2024-03-06T06:07:51.411Z,22.81
2024-03-06T06:10:21.301Z,24.35
2024-03-06T06:12:49.658Z,23.97
2024-03-06T06:15:16.568Z,25.85
2024-03-06T06:17:45.521Z,25.46
2024-03-06T06:20:16.431Z,25.34
2024-03-06T06:22:43.858Z,24.47
2024-03-06T06:25:11.340Z,26.34
2024-03-06T06:27:39.172Z,26.08
2024-03-06T06:30:07.212Z,25.42
2024-03-06T06:32:35.251Z,27.00
2024-03-06T06:35:02.070Z,28.06
2024-03-06T06:37:28.858Z,26.81
2024-03-06T06:39:55.594Z,26.55
2024-03-06T06:42:22.360Z,28.92
2024-03-06T06:44:48.977Z,28.91
2024-03-06T06:47:15.642Z,29.93
2024-03-06T06:49:43.303Z,30.26
2024-03-06T06:52:09.956Z,30.65
2024-03-06T06:54:36.567Z,29.11
2024-03-06T06:57:04.550Z,29.45
2024-03-06T06:59:31.400Z,29.63
2024-03-06T07:01:58.274Z,28.71
2024-03-06T07:04:25.827Z,28.98
2024-03-06T07:06:52.559Z,29.52
2024-03-06T07:09:20.897Z,29.71
2024-03-06T07:11:47.917Z,30.34
2024-03-06T07:14:14.965Z,29.66
2024-03-06T07:16:44.926Z,29.13
2024-03-06T07:19:11.726Z,29.15
2024-03-06T07:21:38.767Z,29.79
2024-03-06T07:24:05.649Z,30.34
2024-03-06T07:26:36.375Z,29.02
2024-03-06T07:29:03.836Z,29.05
2024-03-06T07:31:30.621Z,29.22
2024-03-06T07:33:57.291Z,28.14
2024-03-06T07:36:24.012Z,28.72
2024-03-06T07:38:50.700Z,27.88
2024-03-06T07:41:17.521Z,27.72
2024-03-06T07:43:44.460Z,28.06
2024-03-06T07:46:12.301Z,27.97
2024-03-06T07:48:39.927Z,29.15
2024-03-06T07:51:06.836Z,29.27
2024-03-06T07:53:33.582Z,29.27
2024-03-06T07:56:00.274Z,29.22
2024-03-06T07:58:26.942Z,29.95
2024-03-06T08:00:56.987Z,29.53
2024-03-06T08:03:23.947Z,29.20
2024-03-06T08:05:54.686Z,29.91
2024-03-06T08:08:21.879Z,29.07
2024-03-06T08:10:48.755Z,28.01
2024-03-06T08:13:15.453Z,28.95
2024-03-06T08:15:45.535Z,28.28
2024-03-06T08:18:13.022Z,26.76
2024-03-06T08:20:40.162Z,28.06
2024-03-06T08:23:08.386Z,27.65
2024-03-06T08:25:35.074Z,27.61
2024-03-06T08:28:01.893Z,26.47
2024-03-06T08:30:28.495Z,26.11
2024-03-06T08:32:55.341Z,25.41
2024-03-06T08:35:22.952Z,24.80
2024-03-06T08:37:50.202Z,25.32
2024-03-06T08:40:18.684Z,26.47
2024-03-06T08:42:45.468Z,24.60
2024-03-06T08:45:12.831Z,25.17
2024-03-06T08:47:39.990Z,24.00
2024-03-06T08:50:08.898Z,23.30
2024-03-06T08:52:36.021Z,23.18
2024-03-06T08:55:06.945Z,22.34
2024-03-06T08:57:33.839Z,23.04
2024-03-06T09:00:00.664Z,22.78
2024-03-06T09:02:27.918Z,22.18
2024-03-06T09:04:54.869Z,21.36
2024-03-06T09:07:24.742Z,21.33
2024-03-06T09:09:52.819Z,20.92
2024-03-06T09:12:19.936Z,20.55
2024-03-06T09:14:46.975Z,20.88
2024-03-06T09:17:16.691Z,20.99
2024-03-06T09:19:55.197Z,20.12
2024-03-06T09:22:30.172Z,20.31
2024-03-06T09:24:57.565Z,20.14
2024-03-06T09:27:24.412Z,21.09
2024-03-06T09:29:51.101Z,21.28
2024-03-06T09:32:20.085Z,20.43
2024-03-06T09:34:47.116Z,21.52
2024-03-06T09:37:13.878Z,20.90
2024-03-06T09:39:40.512Z,21.19
2024-03-06T09:42:07.798Z,21.20
2024-03-06T09:44:35.509Z,21.41
2024-03-06T09:47:05.009Z,20.67
2024-03-06T09:49:32.282Z,20.85
2024-03-06T09:51:59.779Z,21.54
2024-03-06T09:54:27.825Z,21.73
2024-03-06T09:56:56.899Z,21.32
2024-03-06T09:59:23.805Z,21.11
2024-03-06T10:01:51.566Z,20.57
2024-03-06T10:04:19.401Z,21.85
2024-03-06T10:06:47.212Z,21.98
2024-03-06T10:09:13.774Z,23.18
2024-03-06T10:11:41.557Z,22.71
2024-03-06T10:14:08.355Z,23.04
2024-03-06T10:16:37.171Z,23.02
2024-03-06T10:19:16.516Z,23.13
2024-03-06T10:21:45.551Z,23.73
2024-03-06T10:24:12.346Z,24.58
2024-03-06T10:26:39.192Z,24.22
2024-03-06T10:29:05.891Z,24.19
2024-03-06T10:31:32.490Z,24.71
2024-03-06T10:33:59.110Z,25.26
2024-03-06T10:36:32.674Z,24.41
2024-03-06T10:39:03.166Z,25.07
2024-03-06T10:41:34.387Z,24.21
2024-03-06T10:44:01.769Z,24.98
2024-03-06T10:46:28.995Z,24.23
2024-03-06T10:48:59.619Z,23.83
2024-03-06T10:51:27.233Z,24.71
2024-03-06T10:53:56.900Z,24.39
2024-03-06T10:56:24.285Z,24.47
2024-03-06T10:58:52.979Z,24.02
2024-03-06T11:01:20.764Z,23.52
2024-03-06T11:03:49.245Z,24.68
2024-03-06T11:06:16.023Z,24.11
2024-03-06T11:08:43.046Z,23.83
2024-03-06T11:11:21.725Z,24.45
2024-03-06T11:13:48.885Z,24.17
2024-03-06T11:16:15.657Z,23.56
2024-03-06T11:18:43.462Z,24.00
2024-03-06T11:21:10.383Z,23.26
2024-03-06T11:23:56.936Z,23.22
2024-03-06T11:26:24.667Z,22.37
2024-03-06T11:28:52.292Z,21.44
2024-03-06T11:31:21.277Z,20.84
2024-03-06T11:33:49.293Z,21.40
2024-03-06T11:36:24.012Z,19.99
2024-03-06T11:38:57.531Z,19.82
2024-03-06T11:41:26.436Z,19.60
2024-03-06T11:43:56.456Z,18.74
2024-03-06T11:46:41.650Z,18.87
2024-03-06T11:49:39.168Z,19.31
2024-03-06T11:52:09.037Z,18.48
2024-03-06T11:54:36.462Z,17.25
2024-03-06T11:57:04.084Z,17.18
2024-03-06T11:59:32.828Z,16.43
2024-03-06T12:02:05.637Z,16.39
2024-03-06T12:04:35.127Z,16.98
2024-03-06T12:07:08.144Z,16.40
2024-03-06T12:09:39.599Z,16.29
2024-03-06T12:12:09.517Z,16.02
2024-03-06T12:14:37.154Z,14.79
2024-03-06T12:17:06.883Z,14.07
2024-03-06T12:19:34.656Z,12.66
2024-03-06T12:22:05.857Z,12.32
2024-03-06T12:24:32.713Z,10.51
2024-03-06T12:27:04.334Z,9.80
2024-03-06T12:29:33.098Z,11.71
2024-03-06T12:32:00.587Z,13.17
2024-03-06T12:34:27.334Z,13.31
2024-03-06T12:36:54.052Z,12.22
2024-03-06T12:39:24.463Z,11.88
2024-03-06T12:41:51.711Z,11.85
2024-03-06T12:44:18.591Z,10.38
2024-03-06T12:46:45.927Z,10.45
2024-03-06T12:49:12.506Z,9.88
2024-03-06T12:51:39.168Z,9.67
2024-03-06T12:54:05.761Z,7.58
2024-03-06T12:56:32.510Z,8.14
2024-03-06T12:58:59.169Z,9.54
2024-03-06T13:01:25.781Z,6.82
2024-03-06T13:03:52.446Z,4.46
2024-03-06T13:06:19.505Z,6.09
2024-03-06T13:08:46.295Z,8.17
2024-03-06T13:11:13.205Z,7.32
2024-03-06T13:13:40.076Z,9.54
2024-03-06T13:16:08.613Z,14.61
2024-03-06T13:18:36.920Z,15.81
2024-03-06T13:21:03.636Z,16.73
2024-03-06T13:23:30.397Z,16.94
2024-03-06T13:25:57.654Z,17.73
2024-03-06T13:28:24.730Z,18.24
2024-03-06T13:30:51.718Z,19.94
2024-03-06T13:33:18.471Z,20.88
2024-03-06T13:35:45.299Z,21.22
2024-03-06T13:38:12.070Z,21.21
2024-03-06T13:40:39.582Z,22.18
2024-03-06T13:43:06.390Z,22.85
2024-03-06T13:45:33.132Z,22.54
2024-03-06T13:47:59.945Z,22.49
2024-03-06T13:50:29.409Z,22.64
2024-03-06T13:52:56.283Z,21.97
2024-03-06T13:55:23.622Z,21.65
2024-03-06T13:57:51.016Z,20.85
2024-03-06T14:00:20.748Z,20.52
2024-03-06T14:02:48.229Z,21.08
2024-03-06T14:05:16.008Z,22.31
2024-03-06T14:07:42.987Z,22.02
2024-03-06T14:10:11.710Z,22.56
2024-03-06T14:12:39.531Z,24.60
2024-03-06T14:15:09.988Z,24.33
2024-03-06T14:17:36.977Z,25.27
2024-03-06T14:20:04.546Z,24.30
2024-03-06T14:22:31.507Z,22.63
2024-03-06T14:24:58.266Z,22.91
2024-03-06T14:27:25.114Z,24.73
2024-03-06T14:29:51.975Z,23.80
2024-03-06T14:32:20.241Z,24.01
2024-03-06T14:34:48.346Z,25.33
2024-03-06T14:37:15.026Z,24.53
2024-03-06T14:39:41.667Z,23.24
2024-03-06T14:42:08.518Z,22.57
2024-03-06T14:44:35.261Z,22.21
2024-03-06T14:47:01.969Z,22.46
2024-03-06T14:49:28.677Z,24.03
2024-03-06T14:51:56.702Z,22.53
2024-03-06T14:54:27.108Z,21.93
2024-03-06T14:56:54.398Z,23.24
2024-03-06T14:59:22.779Z,23.41
2024-03-06T15:01:51.256Z,23.78
2024-03-06T15:04:18.348Z,22.17
2024-03-06T15:06:46.548Z,22.82
2024-03-06T15:09:14.335Z,21.67
2024-03-06T15:11:42.877Z,21.53
2024-03-06T15:14:09.724Z,22.60
2024-03-06T15:16:38.466Z,22.72
2024-03-06T15:19:05.347Z,22.74
2024-03-06T15:21:32.294Z,22.63
2024-03-06T15:24:00.129Z,20.65
2024-03-06T15:26:27.715Z,19.21
2024-03-06T15:28:54.601Z,19.10
2024-03-06T15:31:21.550Z,19.97
2024-03-06T15:33:48.568Z,19.40
2024-03-06T15:36:15.743Z,18.07
2024-03-06T15:38:42.460Z,18.96
2024-03-06T15:41:10.190Z,19.47
2024-03-06T15:43:37.600Z,19.21
2024-03-06T15:46:04.839Z,18.42
2024-03-06T15:48:33.680Z,18.24
2024-03-06T15:51:00.815Z,19.28
2024-03-06T15:53:31.417Z,20.15
2024-03-06T15:55:58.250Z,18.80
2024-03-06T15:58:25.697Z,17.14
2024-03-06T16:00:56.595Z,19.25
2024-03-06T16:03:26.053Z,17.01
2024-03-06T16:05:58.797Z,16.39
2024-03-06T16:08:30.500Z,16.08
2024-03-06T16:10:59.626Z,17.65
2024-03-06T16:13:26.441Z,15.87
2024-03-06T16:15:53.226Z,15.35
2024-03-06T16:18:21.129Z,14.29
2024-03-06T16:20:48.004Z,14.03
2024-03-06T16:23:14.711Z,13.40
2024-03-06T16:25:41.447Z,13.25
2024-03-06T16:28:08.184Z,13.74
2024-03-06T16:30:34.913Z,13.35
2024-03-06T16:33:01.811Z,12.45
2024-03-06T16:35:29.135Z,12.97
2024-03-06T16:37:56.939Z,13.99
2024-03-06T16:40:24.145Z,13.53
2024-03-06T16:42:51.017Z,12.98
2024-03-06T16:45:17.733Z,12.10
2024-03-06T16:47:44.499Z,13.25
2024-03-06T16:50:12.234Z,12.78
2024-03-06T16:52:39.584Z,12.29
2024-03-06T16:55:08.914Z,13.54
2024-03-06T16:57:35.705Z,13.04
2024-03-06T17:00:02.483Z,15.05
2024-03-06T17:02:29.193Z,13.89
2024-03-06T17:04:55.905Z,12.58
2024-03-06T17:07:22.520Z,11.96
2024-03-06T17:09:49.155Z,11.67
2024-03-06T17:12:15.859Z,12.84
2024-03-06T17:14:42.589Z,12.69
2024-03-06T17:17:09.329Z,13.16
2024-03-06T17:19:38.287Z,14.83
2024-03-06T17:22:05.748Z,17.69
2024-03-06T17:24:33.615Z,17.93
2024-03-06T17:27:00.598Z,16.47
2024-03-06T17:29:27.355Z,16.56
2024-03-06T17:31:54.306Z,14.91
2024-03-06T17:34:20.965Z,14.63
2024-03-06T17:36:47.730Z,15.75
2024-03-06T17:39:16.333Z,16.09
2024-03-06T17:41:46.468Z,15.94
2024-03-06T17:44:13.543Z,14.30
2024-03-06T17:46:40.233Z,15.42
2024-03-06T17:49:06.985Z,15.57
2024-03-06T17:51:36.059Z,15.41
2024-03-06T17:54:03.715Z,15.37
2024-03-06T17:56:30.495Z,15.14
2024-03-06T17:58:57.148Z,15.71
2024-03-06T18:01:25.099Z,17.71
2024-03-06T18:03:54.578Z,17.87
2024-03-06T18:06:22.186Z,19.57
2024-03-06T18:08:49.278Z,21.52
2024-03-06T18:11:16.089Z,22.33
2024-03-06T18:13:42.824Z,23.03
2024-03-06T18:16:10.813Z,22.80
2024-03-06T18:18:38.222Z,25.00
2024-03-06T18:21:05.719Z,24.04
2024-03-06T18:23:32.561Z,25.57
2024-03-06T18:26:00.471Z,26.33
2024-03-06T18:28:27.700Z,28.23
2024-03-06T18:30:54.501Z,28.38
2024-03-06T18:33:21.600Z,30.89
2024-03-06T18:35:48.323Z,30.95
2024-03-06T18:38:15.147Z,30.80
2024-03-06T18:40:41.851Z,33.60
2024-03-06T18:43:09.667Z,31.69
2024-03-06T18:45:36.397Z,31.95
2024-03-06T18:48:03.374Z,31.24
2024-03-06T18:50:33.071Z,33.73
2024-03-06T18:53:02.201Z,31.80
2024-03-06T18:55:29.481Z,31.66
2024-03-06T18:57:56.363Z,33.18
2024-03-06T19:00:24.274Z,36.32
2024-03-06T19:02:52.547Z,38.28
2024-03-06T19:05:20.365Z,35.22
2024-03-06T19:07:47.937Z,32.85
2024-03-06T19:10:14.772Z,32.90
2024-03-06T19:12:42.995Z,32.73
2024-03-06T19:15:10.160Z,32.35
2024-03-06T19:17:37.078Z,32.74
2024-03-06T19:20:07.119Z,31.72
2024-03-06T19:22:34.212Z,32.41
2024-03-06T19:25:00.942Z,32.61
2024-03-06T19:27:28.888Z,32.55
2024-03-06T19:29:56.454Z,31.60
2024-03-06T19:32:23.341Z,33.31
2024-03-06T19:34:49.994Z,32.55
2024-03-06T19:37:16.735Z,32.23
2024-03-06T19:39:43.427Z,32.64
2024-03-06T19:42:10.281Z,33.62
2024-03-06T19:44:37.090Z,33.18
2024-03-06T19:47:05.047Z,33.04
2024-03-06T19:49:31.758Z,33.37
2024-03-06T19:51:59.200Z,33.11
2024-03-06T19:54:29.099Z,32.25
2024-03-06T19:56:59.339Z,32.36
2024-03-06T19:59:26.306Z,32.53
2024-03-06T20:01:53.381Z,34.06
2024-03-06T20:04:20.108Z,32.76
2024-03-06T20:06:46.742Z,33.26
2024-03-06T20:09:14.849Z,33.84
2024-03-06T20:11:41.956Z,33.34
2024-03-06T20:14:08.635Z,32.53
2024-03-06T20:16:35.451Z,33.55
2024-03-06T20:19:02.106Z,32.84
2024-03-06T20:21:28.696Z,34.17
2024-03-06T20:23:55.408Z,34.01
2024-03-06T20:26:22.184Z,33.95
2024-03-06T20:28:51.242Z,34.01
2024-03-06T20:31:18.750Z,33.50
2024-03-06T20:33:48.238Z,33.91
2024-03-06T20:36:14.918Z,35.16
2024-03-06T20:38:41.857Z,33.54
2024-03-06T20:41:09.069Z,35.77
2024-03-06T20:43:40.172Z,35.05
2024-03-06T20:46:07.722Z,34.81
2024-03-06T20:48:38.562Z,34.39
2024-03-06T20:51:10.195Z,34.40
2024-03-06T20:53:37.205Z,34.70
2024-03-06T20:56:04.277Z,34.13
2024-03-06T20:58:30.904Z,35.46
2024-03-06T21:00:57.605Z,35.20
2024-03-06T21:03:24.282Z,34.41
2024-03-06T21:05:52.008Z,34.31
2024-03-06T21:08:18.843Z,33.85
2024-03-06T21:10:45.870Z,32.42
2024-03-06T21:13:13.764Z,35.67
2024-03-06T21:15:40.461Z,34.06
2024-03-06T21:18:07.296Z,33.16
2024-03-06T21:20:34.452Z,32.88
2024-03-06T21:23:01.414Z,32.32
2024-03-06T21:25:28.041Z,34.00
2024-03-06T21:27:59.786Z,34.40
2024-03-06T21:30:26.550Z,35.15
2024-03-06T21:32:53.354Z,35.91
2024-03-06T21:35:21.927Z,34.88
2024-03-06T21:37:48.863Z,35.52
2024-03-06T21:40:15.947Z,36.57
2024-03-06T21:42:46.840Z,37.02
2024-03-06T21:45:13.966Z,36.03
2024-03-06T21:47:40.853Z,37.32
2024-03-06T21:50:07.765Z,37.50
2024-03-06T21:52:34.745Z,38.14
2024-03-06T21:55:01.718Z,35.21
2024-03-06T21:57:28.327Z,37.85
2024-03-06T21:59:57.045Z,41.97
2024-03-06T22:02:23.855Z,44.73
2024-03-06T22:04:50.500Z,41.67
2024-03-06T22:07:17.315Z,38.68
2024-03-06T22:09:44.358Z,37.32
2024-03-06T22:12:12.307Z,35.50
2024-03-06T22:14:43.639Z,34.10
2024-03-06T22:17:11.398Z,32.49
2024-03-06T22:19:38.161Z,31.63
2024-03-06T22:22:04.885Z,31.15
2024-03-06T22:24:31.479Z,34.93
2024-03-06T22:26:58.131Z,35.14
2024-03-06T22:29:24.867Z,32.58
2024-03-06T22:31:51.447Z,32.72
2024-03-06T22:34:18.111Z,35.17
2024-03-06T22:36:44.866Z,31.53
2024-03-06T22:39:11.607Z,30.44
2024-03-06T22:41:38.379Z,34.81
2024-03-06T22:44:06.706Z,36.19
2024-03-06T22:46:35.418Z,35.07
2024-03-06T22:49:08.236Z,35.99
2024-03-06T22:51:34.954Z,35.75
2024-03-06T22:54:01.963Z,36.64
2024-03-06T22:56:31.061Z,37.41
2024-03-06T22:58:59.510Z,35.35
2024-03-06T23:01:26.257Z,38.86
2024-03-06T23:03:52.903Z,37.24
2024-03-06T23:06:19.647Z,38.73
2024-03-06T23:08:46.995Z,38.68
2024-03-06T23:11:13.998Z,38.65
2024-03-06T23:13:41.387Z,38.86
2024-03-06T23:16:08.115Z,38.63
2024-03-06T23:18:34.968Z,38.73
2024-03-06T23:21:01.785Z,37.54
2024-03-06T23:23:28.513Z,38.92
2024-03-06T23:25:55.542Z,41.37
2024-03-06T23:28:22.177Z,40.35
2024-03-06T23:30:48.805Z,40.37
2024-03-06T23:33:15.986Z,40.91
2024-03-06T23:35:42.775Z,40.85
2024-03-06T23:38:09.449Z,40.42
2024-03-06T23:40:36.509Z,41.44
2024-03-06T23:43:04.595Z,41.98
2024-03-06T23:45:31.351Z,42.77
2024-03-06T23:47:58.240Z,40.99
2024-03-06T23:50:25.558Z,42.10
2024-03-06T23:52:53.687Z,42.42
2024-03-06T23:55:20.352Z,40.31
2024-03-06T23:57:47.138Z,42.09
